createdAt,value
2019-02-02T00:01:11.657Z,61.60
2019-02-02T00:03:41.200Z,60.83
2019-02-02T00:06:10.868Z,63.30
2019-02-02T00:08:40.482Z,62.13
2019-02-02T00:11:09.928Z,66.23
2019-02-02T00:13:40.963Z,64.40
2019-02-02T00:16:10.457Z,64.43
2019-02-02T00:18:41.414Z,69.47
2019-02-02T00:21:11.094Z,63.07
2019-02-02T00:23:40.584Z,59.60
2019-02-02T00:26:10.106Z,56.43
2019-02-02T00:28:39.686Z,63.90
2019-02-02T00:31:09.180Z,65.07
2019-02-02T00:33:38.592Z,59.33
2019-02-02T00:36:08.222Z,65.57
2019-02-02T00:38:37.642Z,58.63
2019-02-02T00:41:07.208Z,63.37
2019-02-02T00:43:38.546Z,61.57
2019-02-02T00:46:08.964Z,63.53
2019-02-02T00:48:38.526Z,61.83
2019-02-02T00:51:08.084Z,64.27
2019-02-02T00:53:37.583Z,64.17
2019-02-02T00:56:07.234Z,63.20
2019-02-02T00:58:36.668Z,63.83
2019-02-02T01:01:06.209Z,64.37
2019-02-02T01:03:35.770Z,66.73
2019-02-02T01:06:05.722Z,69.33
2019-02-02T01:08:35.227Z,65.57
2019-02-02T01:11:06.577Z,64.97
2019-02-02T01:13:36.077Z,68.50
2019-02-02T01:16:06.118Z,63.60
2019-02-02T01:18:35.595Z,66.43
2019-02-02T01:21:05.135Z,66.07
2019-02-02T01:23:34.577Z,65.90
2019-02-02T01:26:04.150Z,67.03
2019-02-02T01:28:33.657Z,66.87
2019-02-02T01:31:03.131Z,64.87
2019-02-02T01:33:32.630Z,67.77
2019-02-02T01:36:02.105Z,68.97
2019-02-02T01:38:31.596Z,61.83
2019-02-02T01:41:01.067Z,68.20
2019-02-02T01:43:30.582Z,65.83
2019-02-02T01:46:00.151Z,62.90
2019-02-02T01:48:29.623Z,66.43
2019-02-02T01:50:59.051Z,65.97
2019-02-02T01:53:28.561Z,61.93
2019-02-02T01:55:57.985Z,68.93
2019-02-02T01:58:27.387Z,67.33
2019-02-02T02:00:56.885Z,65.13
2019-02-02T02:03:26.359Z,64.77
2019-02-02T02:05:55.843Z,66.97
2019-02-02T02:08:25.325Z,65.60
2019-02-02T02:10:54.753Z,72.83
2019-02-02T02:13:24.169Z,71.07
2019-02-02T02:15:53.604Z,70.20
2019-02-02T02:18:23.077Z,68.77
2019-02-02T02:20:53.739Z,65.93
2019-02-02T02:23:23.139Z,70.40
2019-02-02T02:25:52.646Z,74.33
2019-02-02T02:28:28.144Z,65.57
2019-02-02T02:30:53.367Z,68.40
2019-02-02T02:33:22.951Z,71.80
2019-02-02T02:35:52.369Z,62.20
2019-02-02T02:38:21.946Z,67.93
2019-02-02T02:40:51.355Z,69.03
2019-02-02T02:43:20.772Z,73.10
2019-02-02T02:45:50.179Z,68.03
2019-02-02T02:48:21.118Z,72.20
2019-02-02T02:50:50.511Z,70.50
2019-02-02T02:53:20.996Z,68.27
2019-02-02T02:55:50.401Z,62.77
2019-02-02T02:58:19.829Z,69.03
2019-02-02T03:00:49.231Z,73.30
2019-02-02T03:03:18.669Z,74.37
2019-02-02T03:05:48.126Z,76.77
2019-02-02T03:08:17.618Z,73.20
2019-02-02T03:10:47.080Z,73.93
2019-02-02T03:13:16.524Z,70.00
2019-02-02T03:15:45.902Z,73.17
2019-02-02T03:18:15.314Z,73.10
2019-02-02T03:20:44.710Z,75.77
2019-02-02T03:23:14.139Z,78.27
2019-02-02T03:25:43.612Z,69.70
2019-02-02T03:28:13.099Z,73.83
2019-02-02T03:30:42.503Z,70.73
2019-02-02T03:33:12.028Z,74.50
2019-02-02T03:35:41.523Z,72.93
2019-02-02T03:38:10.895Z,79.00
2019-02-02T03:40:40.303Z,70.60
2019-02-02T03:43:09.856Z,77.93
2019-02-02T03:45:40.690Z,78.43
2019-02-02T03:48:10.631Z,72.40
2019-02-02T03:50:40.103Z,79.23
2019-02-02T03:53:09.660Z,83.63
2019-02-02T03:55:39.062Z,82.03
2019-02-02T03:58:08.543Z,78.30
2019-02-02T04:00:38.018Z,77.43
2019-02-02T04:03:07.504Z,77.13
2019-02-02T04:05:36.904Z,77.40
2019-02-02T04:08:06.478Z,71.00
2019-02-02T04:10:35.875Z,75.83
2019-02-02T04:13:05.434Z,73.63
2019-02-02T04:15:34.984Z,76.40
2019-02-02T04:18:04.553Z,77.23
2019-02-02T04:20:34.919Z,72.33
2019-02-02T04:23:04.412Z,70.90
2019-02-02T04:25:33.804Z,76.40
2019-02-02T04:28:03.291Z,78.60
2019-02-02T04:30:32.695Z,77.70
2019-02-02T04:33:02.115Z,69.17
2019-02-02T04:35:31.520Z,69.17
2019-02-02T04:38:00.933Z,70.30
2019-02-02T04:40:30.344Z,73.93
2019-02-02T04:43:01.696Z,70.00
2019-02-02T04:45:30.879Z,72.10
2019-02-02T04:48:00.362Z,78.17
2019-02-02T04:50:29.767Z,74.13
2019-02-02T04:52:59.215Z,75.50
2019-02-02T04:55:28.755Z,76.77
2019-02-02T04:57:58.248Z,75.10
2019-02-02T05:00:28.194Z,74.50
2019-02-02T05:02:57.619Z,70.07
2019-02-02T05:05:27.009Z,77.03
2019-02-02T05:07:56.501Z,70.53
2019-02-02T05:10:26.339Z,77.57
2019-02-02T05:12:55.759Z,72.87
2019-02-02T05:15:25.169Z,85.83
2019-02-02T05:17:54.648Z,77.17
2019-02-02T05:20:24.129Z,76.93
2019-02-02T05:22:53.652Z,70.13
2019-02-02T05:25:23.104Z,79.90
2019-02-02T05:27:52.509Z,73.70
2019-02-02T05:30:24.859Z,74.37
2019-02-02T05:32:54.256Z,75.83
2019-02-02T05:35:23.783Z,72.57
2019-02-02T05:37:53.313Z,75.93
2019-02-02T05:40:24.018Z,78.30
2019-02-02T05:42:53.557Z,78.40
2019-02-02T05:45:24.022Z,81.23
2019-02-02T05:47:53.427Z,86.77
2019-02-02T05:50:23.835Z,80.93
2019-02-02T05:52:53.418Z,87.43
2019-02-02T05:55:23.687Z,81.80
2019-02-02T05:57:53.169Z,76.70
2019-02-02T06:00:34.906Z,77.70
2019-02-02T06:03:04.684Z,82.90
2019-02-02T06:05:34.166Z,80.97
2019-02-02T06:08:03.641Z,81.53
2019-02-02T06:10:33.057Z,72.77
2019-02-02T06:13:02.531Z,82.70
2019-02-02T06:15:32.093Z,84.87
2019-02-02T06:18:01.561Z,80.13
2019-02-02T06:20:30.975Z,77.60
2019-02-02T06:23:00.380Z,85.43
2019-02-02T06:25:30.182Z,83.63
2019-02-02T06:27:59.577Z,86.23
2019-02-02T06:30:30.033Z,78.20
2019-02-02T06:32:59.455Z,82.20
2019-02-02T06:35:29.007Z,83.57
2019-02-02T06:37:58.486Z,85.03
2019-02-02T06:40:27.919Z,89.20
2019-02-02T06:42:57.403Z,82.67
2019-02-02T06:45:32.382Z,89.67
2019-02-02T06:48:01.849Z,81.97
2019-02-02T06:50:31.332Z,82.37
2019-02-02T06:53:01.487Z,84.53
2019-02-02T06:55:30.983Z,81.03
2019-02-02T06:58:00.441Z,83.30
2019-02-02T07:00:31.009Z,83.57
2019-02-02T07:03:00.419Z,78.77
2019-02-02T07:05:29.943Z,83.63
2019-02-02T07:07:59.391Z,89.00
2019-02-02T07:10:29.967Z,82.07
2019-02-02T07:12:59.374Z,90.07
2019-02-02T07:15:30.534Z,84.03
2019-02-02T07:17:59.994Z,93.87
2019-02-02T07:20:29.420Z,94.53
2019-02-02T07:23:01.597Z,85.97
2019-02-02T07:25:31.091Z,83.67
2019-02-02T07:28:00.485Z,80.50
2019-02-02T07:30:29.985Z,83.87
2019-02-02T07:32:59.548Z,85.03
2019-02-02T07:35:29.133Z,88.43
2019-02-02T07:37:58.613Z,80.17
2019-02-02T07:40:28.031Z,92.00
2019-02-02T07:42:57.453Z,86.30
2019-02-02T07:45:31.572Z,92.03
2019-02-02T07:48:00.981Z,88.73
2019-02-02T07:50:30.481Z,95.87
2019-02-02T07:52:59.968Z,93.40
2019-02-02T07:55:29.393Z,95.17
2019-02-02T07:57:58.790Z,98.50
2019-02-02T08:00:40.721Z,94.00
2019-02-02T08:03:04.971Z,87.80
2019-02-02T08:05:34.494Z,94.83
2019-02-02T08:08:04.735Z,93.47
2019-02-02T08:10:34.231Z,92.73
2019-02-02T08:13:04.521Z,100.70
2019-02-02T08:15:34.817Z,101.17
2019-02-02T08:18:05.363Z,99.17
2019-02-02T08:20:34.799Z,102.53
2019-02-02T08:23:04.663Z,99.73
2019-02-02T08:25:34.147Z,101.90
2019-02-02T08:28:03.919Z,103.97
2019-02-02T08:30:35.768Z,106.63
2019-02-02T08:33:06.439Z,101.90
2019-02-02T08:35:35.993Z,94.03
2019-02-02T08:38:05.953Z,97.20
2019-02-02T08:40:35.442Z,103.27
2019-02-02T08:43:05.103Z,92.97
2019-02-02T08:45:34.582Z,95.40
2019-02-02T08:48:04.051Z,93.40
2019-02-02T08:50:35.612Z,93.17
2019-02-02T08:53:08.209Z,99.37
2019-02-02T08:55:37.662Z,91.70
2019-02-02T08:58:07.117Z,97.47
2019-02-02T09:00:36.672Z,92.97
2019-02-02T09:03:06.248Z,94.73
2019-02-02T09:05:35.860Z,86.97
2019-02-02T09:08:05.390Z,91.70
2019-02-02T09:10:34.789Z,93.97
2019-02-02T09:13:04.693Z,92.47
2019-02-02T09:15:34.248Z,95.13
2019-02-02T09:18:03.743Z,87.43
2019-02-02T09:20:33.160Z,91.70
2019-02-02T09:23:06.445Z,87.07
2019-02-02T09:25:33.830Z,93.47
2019-02-02T09:28:04.370Z,102.23
2019-02-02T09:30:35.710Z,97.40
2019-02-02T09:33:05.878Z,96.30
2019-02-02T09:35:35.337Z,95.10
2019-02-02T09:38:05.506Z,98.23
2019-02-02T09:40:34.982Z,98.13
2019-02-02T09:43:04.864Z,93.30
2019-02-02T09:45:34.280Z,95.80
2019-02-02T09:48:04.086Z,94.93
2019-02-02T09:50:33.607Z,98.33
2019-02-02T09:53:03.458Z,100.50
2019-02-02T09:55:33.376Z,97.80
2019-02-02T09:58:08.556Z,93.17
2019-02-02T10:00:37.681Z,85.13
2019-02-02T10:03:07.428Z,93.10
2019-02-02T10:05:36.929Z,103.67
2019-02-02T10:08:06.568Z,99.00
2019-02-02T10:10:35.973Z,90.30
2019-02-02T10:13:06.728Z,96.03
2019-02-02T10:15:37.278Z,97.77
2019-02-02T10:18:10.000Z,98.73
2019-02-02T10:20:39.480Z,98.53
2019-02-02T10:23:08.965Z,97.20
2019-02-02T10:25:38.390Z,108.80
2019-02-02T10:28:07.873Z,96.97
2019-02-02T10:30:39.864Z,97.33
2019-02-02T10:33:09.725Z,108.23
2019-02-02T10:35:39.390Z,100.73
2019-02-02T10:38:08.930Z,99.27
2019-02-02T10:40:38.577Z,115.47
2019-02-02T10:43:09.519Z,111.43
2019-02-02T10:45:39.038Z,119.97
2019-02-02T10:48:08.566Z,102.97
2019-02-02T10:50:38.120Z,107.50
2019-02-02T10:53:07.806Z,105.60
2019-02-02T10:55:37.359Z,111.70
2019-02-02T10:58:07.090Z,116.43
2019-02-02T11:00:39.791Z,110.50
2019-02-02T11:03:09.512Z,114.73
2019-02-02T11:05:41.801Z,113.90
2019-02-02T11:08:11.383Z,111.47
2019-02-02T11:10:41.133Z,118.73
2019-02-02T11:13:10.754Z,125.77
2019-02-02T11:15:40.349Z,115.80
2019-02-02T11:18:09.938Z,123.90
2019-02-02T11:20:39.602Z,121.03
2019-02-02T11:23:10.758Z,126.57
2019-02-02T11:25:40.255Z,125.23
2019-02-02T11:28:09.726Z,120.47
2019-02-02T11:30:39.367Z,122.03
2019-02-02T11:33:08.982Z,122.40
2019-02-02T11:35:38.417Z,126.23
2019-02-02T11:38:07.915Z,130.47
2019-02-02T11:40:37.401Z,118.23
2019-02-02T11:43:07.048Z,124.87
2019-02-02T11:45:36.563Z,114.70
2019-02-02T11:48:06.565Z,123.03
2019-02-02T11:50:35.969Z,120.90
2019-02-02T11:53:05.651Z,124.93
2019-02-02T11:55:35.059Z,120.13
2019-02-02T11:58:04.713Z,133.87
2019-02-02T12:00:57.645Z,125.20
2019-02-02T12:03:27.062Z,128.53
2019-02-02T12:05:56.631Z,114.57
2019-02-02T12:08:26.057Z,129.47
2019-02-02T12:10:56.532Z,127.60
2019-02-02T12:13:26.009Z,130.40
2019-02-02T12:15:55.437Z,120.53
2019-02-02T12:18:24.921Z,130.73
2019-02-02T12:20:54.340Z,123.00
2019-02-02T12:23:23.994Z,123.83
2019-02-02T12:25:53.429Z,124.67
2019-02-02T12:28:23.031Z,114.23
2019-02-02T12:30:52.607Z,116.73
2019-02-02T12:33:22.092Z,124.13
2019-02-02T12:35:51.671Z,120.40
2019-02-02T12:38:21.114Z,125.87
2019-02-02T12:40:50.621Z,118.27
2019-02-02T12:43:20.197Z,125.93
2019-02-02T12:45:50.293Z,115.17
2019-02-02T12:48:19.794Z,128.93
2019-02-02T12:50:49.381Z,111.13
2019-02-02T12:53:19.094Z,128.33
2019-02-02T12:55:48.653Z,119.23
2019-02-02T12:58:18.703Z,134.43
2019-02-02T13:00:48.267Z,124.73
2019-02-02T13:03:17.793Z,118.47
2019-02-02T13:05:48.356Z,125.00
2019-02-02T13:08:17.932Z,131.33
2019-02-02T13:10:47.935Z,132.07
2019-02-02T13:13:17.969Z,133.77
2019-02-02T13:15:47.394Z,122.80
2019-02-02T13:18:16.893Z,121.23
2019-02-02T13:20:46.460Z,131.77
2019-02-02T13:23:15.904Z,136.03
2019-02-02T13:25:45.534Z,126.67
2019-02-02T13:28:15.110Z,128.70
2019-02-02T13:30:44.538Z,123.90
2019-02-02T13:33:13.973Z,127.03
2019-02-02T13:35:43.451Z,135.53
2019-02-02T13:38:12.875Z,136.70
2019-02-02T13:40:42.549Z,140.53
2019-02-02T13:43:12.090Z,140.73
2019-02-02T13:45:41.615Z,134.17
2019-02-02T13:48:11.217Z,133.67
2019-02-02T13:50:40.776Z,137.60
2019-02-02T13:53:11.389Z,148.90
2019-02-02T13:55:41.383Z,143.07
2019-02-02T13:58:11.436Z,149.73
2019-02-02T14:00:40.941Z,152.37
2019-02-02T14:03:10.413Z,146.97
2019-02-02T14:05:40.268Z,158.33
2019-02-02T14:08:09.989Z,161.07
2019-02-02T14:10:39.847Z,141.83
2019-02-02T14:13:09.493Z,146.83
2019-02-02T14:15:39.545Z,145.30
2019-02-02T14:18:09.260Z,155.73
2019-02-02T14:20:38.836Z,156.40
2019-02-02T14:23:08.385Z,166.77
2019-02-02T14:25:38.080Z,153.63
2019-02-02T14:28:07.886Z,152.33
2019-02-02T14:30:38.733Z,169.80
2019-02-02T14:33:14.134Z,152.97
2019-02-02T14:35:39.450Z,160.63
2019-02-02T14:38:08.966Z,158.37
2019-02-02T14:40:38.468Z,150.57
2019-02-02T14:43:07.872Z,160.97
2019-02-02T14:45:37.372Z,158.03
2019-02-02T14:48:06.851Z,155.60
2019-02-02T14:50:36.385Z,166.37
2019-02-02T14:53:05.935Z,166.93
2019-02-02T14:55:35.757Z,166.37
2019-02-02T14:58:06.008Z,160.27
2019-02-02T15:00:35.482Z,160.17
2019-02-02T15:03:05.282Z,165.47
2019-02-02T15:05:42.681Z,156.60
2019-02-02T15:08:05.884Z,154.43
2019-02-02T15:10:35.292Z,170.93
2019-02-02T15:13:04.966Z,160.20
2019-02-02T15:15:34.525Z,168.73
2019-02-02T15:18:04.033Z,167.97
2019-02-02T15:20:35.484Z,165.90
2019-02-02T15:23:06.332Z,158.93
2019-02-02T15:25:35.887Z,177.77
2019-02-02T15:28:05.524Z,180.07
2019-02-02T15:30:36.682Z,204.23
2019-02-02T15:33:06.651Z,189.67
2019-02-02T15:35:36.283Z,175.97
2019-02-02T15:38:06.049Z,180.37
2019-02-02T15:40:35.497Z,179.77
2019-02-02T15:43:05.301Z,179.80
2019-02-02T15:45:34.856Z,188.93
2019-02-02T15:48:04.752Z,193.17
2019-02-02T15:50:34.300Z,193.20
2019-02-02T15:53:03.754Z,206.97
2019-02-02T15:55:33.232Z,197.90
2019-02-02T15:58:02.786Z,189.30
2019-02-02T16:00:38.845Z,190.30
2019-02-02T16:03:16.378Z,176.27
2019-02-02T16:05:45.817Z,186.43
2019-02-02T16:08:15.489Z,200.80
2019-02-02T16:10:45.020Z,181.40
2019-02-02T16:13:17.401Z,176.60
2019-02-02T16:15:47.119Z,180.53
2019-02-02T16:18:16.620Z,191.17
2019-02-02T16:20:46.189Z,176.83
2019-02-02T16:23:15.663Z,207.03
2019-02-02T16:25:45.246Z,200.83
2019-02-02T16:28:14.653Z,189.43
2019-02-02T16:30:44.085Z,195.00
2019-02-02T16:33:13.575Z,172.03
2019-02-02T16:35:43.074Z,181.97
2019-02-02T16:38:12.825Z,189.73
2019-02-02T16:40:42.402Z,180.20
2019-02-02T16:43:11.815Z,186.30
2019-02-02T16:45:44.336Z,182.83
2019-02-02T16:48:13.823Z,181.00
2019-02-02T16:50:43.279Z,181.93
2019-02-02T16:53:12.757Z,198.57
2019-02-02T16:55:42.265Z,175.83
2019-02-02T16:58:12.729Z,203.27
2019-02-02T17:00:42.243Z,183.27
2019-02-02T17:03:11.671Z,181.77
2019-02-02T17:05:41.131Z,207.77
2019-02-02T17:08:10.620Z,192.50
2019-02-02T17:10:40.323Z,174.77
2019-02-02T17:13:09.815Z,191.67
2019-02-02T17:15:39.238Z,177.83
2019-02-02T17:18:08.729Z,205.70
2019-02-02T17:20:40.187Z,179.53
2019-02-02T17:23:09.679Z,177.97
2019-02-02T17:25:39.241Z,174.00
2019-02-02T17:28:09.069Z,165.20
2019-02-02T17:30:39.533Z,175.63
2019-02-02T17:33:13.296Z,169.53
2019-02-02T17:35:43.959Z,173.87
2019-02-02T17:38:13.482Z,177.03
2019-02-02T17:40:43.303Z,177.93
2019-02-02T17:43:12.733Z,196.37
2019-02-02T17:45:42.225Z,180.60
2019-02-02T17:48:13.229Z,206.93
2019-02-02T17:50:42.946Z,208.13
2019-02-02T17:53:13.557Z,208.50
2019-02-02T17:55:42.969Z,186.73
2019-02-02T17:58:13.472Z,183.47
2019-02-02T18:00:50.750Z,179.60
2019-02-02T18:03:20.395Z,208.67
2019-02-02T18:05:50.195Z,207.20
2019-02-02T18:08:19.781Z,187.80
2019-02-02T18:10:49.335Z,205.13
2019-02-02T18:13:18.882Z,193.20
2019-02-02T18:15:48.437Z,196.63
2019-02-02T18:18:18.033Z,198.67
2019-02-02T18:20:47.447Z,215.53
2019-02-02T18:23:18.311Z,193.73
2019-02-02T18:25:48.141Z,205.07
2019-02-02T18:28:17.560Z,196.37
2019-02-02T18:30:46.984Z,201.40
2019-02-02T18:33:16.484Z,180.10
2019-02-02T18:35:45.895Z,201.50
2019-02-02T18:38:15.369Z,211.00
2019-02-02T18:40:44.952Z,211.43
2019-02-02T18:43:14.373Z,210.80
2019-02-02T18:45:43.873Z,222.03
2019-02-02T18:48:13.422Z,203.10
2019-02-02T18:50:42.865Z,202.60
2019-02-02T18:53:12.271Z,203.23
2019-02-02T18:55:44.960Z,201.37
2019-02-02T18:58:14.523Z,203.03
2019-02-02T19:00:43.970Z,203.67
2019-02-02T19:03:13.466Z,214.00
2019-02-02T19:05:42.993Z,202.57
2019-02-02T19:08:12.441Z,219.27
2019-02-02T19:10:42.715Z,199.67
2019-02-02T19:13:12.203Z,219.67
2019-02-02T19:15:41.707Z,215.40
2019-02-02T19:18:11.192Z,219.60
2019-02-02T19:20:40.696Z,207.23
2019-02-02T19:23:10.188Z,216.60
2019-02-02T19:25:39.594Z,198.27
2019-02-02T19:28:09.368Z,196.60
2019-02-02T19:30:39.914Z,200.53
2019-02-02T19:33:10.597Z,215.87
2019-02-02T19:35:40.045Z,217.20
2019-02-02T19:38:09.931Z,214.47
2019-02-02T19:40:40.458Z,217.57
2019-02-02T19:43:10.842Z,215.33
2019-02-02T19:45:41.927Z,218.93
2019-02-02T19:48:11.610Z,220.97
2019-02-02T19:50:41.102Z,209.53
2019-02-02T19:53:11.170Z,214.67
2019-02-02T19:55:40.530Z,216.23
2019-02-02T19:58:10.023Z,218.00
2019-02-02T20:00:39.505Z,226.57
2019-02-02T20:03:09.203Z,211.07
2019-02-02T20:05:38.762Z,257.60
2019-02-02T20:08:08.276Z,272.87
2019-02-02T20:10:37.780Z,241.40
2019-02-02T20:13:07.358Z,303.03
2019-02-02T20:15:36.786Z,249.07
2019-02-02T20:18:09.899Z,257.60
2019-02-02T20:20:37.824Z,282.23
2019-02-02T20:23:07.418Z,266.13
2019-02-02T20:25:36.909Z,229.23
2019-02-02T20:28:06.563Z,221.60
2019-02-02T20:30:36.018Z,210.17
2019-02-02T20:33:05.790Z,211.07
2019-02-02T20:35:42.026Z,221.83
2019-02-02T20:38:06.499Z,220.53
2019-02-02T20:40:35.947Z,209.07
2019-02-02T20:43:05.672Z,231.33
2019-02-02T20:45:37.260Z,205.73
2019-02-02T20:48:06.841Z,222.47
2019-02-02T20:50:36.278Z,204.57
2019-02-02T20:53:06.006Z,210.83
2019-02-02T20:55:39.758Z,213.17
2019-02-02T20:58:09.371Z,230.17
2019-02-02T21:00:38.994Z,208.00
2019-02-02T21:03:08.484Z,214.77
2019-02-02T21:05:37.952Z,213.73
2019-02-02T21:08:07.786Z,219.90
2019-02-02T21:10:37.232Z,218.27
2019-02-02T21:13:07.672Z,228.77
2019-02-02T21:15:37.096Z,204.47
2019-02-02T21:18:06.674Z,216.43
2019-02-02T21:20:36.434Z,221.87
2019-02-02T21:23:06.088Z,215.47
2019-02-02T21:25:35.575Z,210.70
2019-02-02T21:28:08.187Z,221.80
2019-02-02T21:30:37.611Z,200.83
2019-02-02T21:33:07.400Z,207.83
2019-02-02T21:35:36.845Z,203.67
2019-02-02T21:38:06.708Z,202.23
2019-02-02T21:40:36.372Z,207.73
2019-02-02T21:43:06.721Z,197.13
2019-02-02T21:48:30.863Z,218.63
2019-02-02T21:51:00.315Z,202.17
2019-02-02T21:53:29.750Z,197.43
2019-02-02T21:55:59.196Z,184.70
2019-02-02T21:58:28.707Z,192.57
2019-02-02T22:00:58.137Z,205.77
2019-02-02T22:03:27.564Z,214.90
2019-02-02T22:05:57.013Z,189.50
2019-02-02T22:08:26.611Z,209.83
2019-02-02T22:10:56.043Z,206.17
2019-02-02T22:13:25.553Z,197.60
2019-02-02T22:15:55.048Z,204.00
2019-02-02T22:18:24.488Z,204.70
2019-02-02T22:20:55.113Z,195.07
2019-02-02T22:23:24.692Z,182.63
2019-02-02T22:25:54.269Z,198.77
2019-02-02T22:28:23.783Z,194.13
2019-02-02T22:30:53.209Z,203.03
2019-02-02T22:33:23.146Z,196.93
2019-02-02T22:35:52.587Z,197.57
2019-02-02T22:38:22.041Z,195.03
2019-02-02T22:40:51.538Z,204.47
2019-02-02T22:43:21.023Z,195.53
2019-02-02T22:45:50.542Z,188.57
2019-02-02T22:48:20.037Z,194.40
2019-02-02T22:50:49.550Z,199.00
2019-02-02T22:53:18.965Z,204.57
2019-02-02T22:55:48.499Z,211.30
2019-02-02T22:58:17.922Z,206.50
2019-02-02T23:01:04.425Z,206.03
2019-02-02T23:03:37.831Z,184.63
2019-02-02T23:06:38.873Z,204.97
2019-02-02T23:09:21.938Z,190.47
2019-02-02T23:12:05.122Z,177.27
2019-02-02T23:14:57.356Z,186.97
2019-02-02T23:17:26.777Z,193.90
2019-02-02T23:20:00.587Z,176.77
2019-02-02T23:22:29.961Z,188.50
2019-02-02T23:24:59.378Z,174.70
2019-02-02T23:27:28.802Z,199.47
2019-02-02T23:29:58.233Z,184.77
2019-02-02T23:32:27.660Z,188.47
2019-02-02T23:34:57.171Z,181.37
2019-02-02T23:37:26.588Z,188.67
2019-02-02T23:39:56.035Z,188.20
2019-02-02T23:42:26.612Z,199.90
2019-02-02T23:44:56.184Z,191.83
2019-02-02T23:47:25.707Z,184.37
2019-02-02T23:49:55.166Z,187.13
2019-02-02T23:52:24.648Z,179.13
2019-02-02T23:54:54.197Z,171.37
2019-02-02T23:57:23.893Z,173.53
2019-02-02T23:59:53.576Z,181.13
